Time;durP1;ratioP1;P1;durP2;ratioP2;P2;SDS_P1;SDS_P2;PMS_P1;PMS_P2;Temp;Humidity;BMP_temperature;BMP_pressure;BME280_temperature;BME280_humidity;BME280_pressure;Samples;Min_cycle;Max_cycle;Signal;HPM_P1;HPM_P2
2023/10/27 00:02:21;;;;;;;;;;;;;;;8.92;100.00;98718.11;110912;1212;111963;-62
2023/10/27 00:04:47;;;;;;;;;;;;;;;8.89;100.00;98719.35;110939;1209;97663;-62
2023/10/27 00:07:12;;;;;;;;;;;;;;;8.90;100.00;98716.09;110844;1209;124760;-62
2023/10/27 00:09:37;;;;;;;;;;;;;;;8.89;100.00;98718.33;110887;1212;98713;-63
2023/10/27 00:12:03;;;;;;;;;;;;;;;8.88;100.00;98720.48;110851;1210;125306;-62
2023/10/27 00:14:28;;;;;;;;;;;;;;;8.88;100.00;98722.14;110815;1224;97622;-62
2023/10/27 00:16:54;;;;;;;;;;;;;;;8.85;100.00;98719.10;110914;1209;97645;-65
2023/10/27 00:19:19;;;;;;;;;;;;;;;8.83;100.00;98716.74;111021;1209;124506;-63
2023/10/27 00:21:44;;;;;;;;;;;;;;;8.83;100.00;98714.10;110878;1212;97659;-63
2023/10/27 00:24:10;;;;;;;;;;;;;;;8.76;100.00;98710.21;110832;1212;125095;-63
2023/10/27 00:26:35;;;;;;;;;;;;;;;8.75;100.00;98709.95;110831;1209;97572;-63
2023/10/27 00:29:00;;;;;;;;;;;;;;;8.73;100.00;98709.00;111020;1212;97791;-63
2023/10/27 00:31:25;;;;;;;;;;;;;;;8.74;100.00;98706.67;110772;1209;124340;-63
2023/10/27 00:33:50;;;;;;;;;;;;;;;8.73;100.00;98709.92;110855;1225;99069;-63
2023/10/27 00:36:15;;;;;;;;;;;;;;;8.74;100.00;98708.23;110881;1212;125272;-63
2023/10/27 00:38:40;;;;;;;;;;;;;;;8.73;100.00;98707.25;110950;1212;100598;-63
2023/10/27 00:41:06;;;;;;;;;;;;;;;8.72;100.00;98702.31;110859;1212;125810;-64
2023/10/27 00:43:31;;;;;;;;;;;;;;;8.70;100.00;98701.58;110879;1208;97665;-63
2023/10/27 00:45:56;;;;;;;;;;;;;;;8.70;100.00;98704.64;111033;1209;97623;-63
2023/10/27 00:48:21;;;;;;;;;;;;;;;8.69;100.00;98708.20;110751;1212;124823;-64
2023/10/27 00:50:47;;;;;;;;;;;;;;;8.71;100.00;98707.52;110838;1212;97642;-63
2023/10/27 00:53:13;;;;;;;;;;;;;;;8.71;100.00;98710.21;110850;1224;124948;-63
2023/10/27 00:55:42;;;;;;;;;;;;;;;8.71;100.00;98706.35;110878;1212;97620;-64
2023/10/27 00:58:08;;;;;;;;;;;;;;;8.71;100.00;98707.20;110887;1212;108099;-63
2023/10/27 01:00:34;;;;;;;;;;;;;;;8.70;100.00;98704.57;110723;1212;125359;-63
2023/10/27 01:02:59;;;;;;;;;;;;;;;8.71;100.00;98701.17;111001;1208;97842;-63
2023/10/27 01:05:24;;;;;;;;;;;;;;;8.71;100.00;98702.05;110787;1212;125678;-63
2023/10/27 01:07:49;;;;;;;;;;;;;;;8.70;100.00;98699.92;110867;1209;97690;-63
2023/10/27 01:10:15;;;;;;;;;;;;;;;8.70;100.00;98697.84;110911;1212;97559;-63
2023/10/27 01:12:45;;;;;;;;;;;;;;;8.67;100.00;98695.93;110824;1208;125311;-63
2023/10/27 01:15:11;;;;;;;;;;;;;;;8.66;100.00;98695.61;110992;1212;102061;-63
2023/10/27 01:17:36;;;;;;;;;;;;;;;8.68;100.00;98697.81;110973;1212;124987;-63
2023/10/27 01:20:01;;;;;;;;;;;;;;;8.67;100.00;98691.98;111002;1212;97698;-63
2023/10/27 01:22:27;;;;;;;;;;;;;;;8.67;100.00;98688.58;110860;1212;97589;-63
2023/10/27 01:24:55;;;;;;;;;;;;;;;8.65;100.00;98686.07;110802;1212;125296;-62
2023/10/27 01:27:20;;;;;;;;;;;;;;;8.64;100.00;98689.69;110837;1212;97671;-62
2023/10/27 01:29:45;;;;;;;;;;;;;;;8.65;100.00;98693.03;110814;1208;124995;-62
2023/10/27 01:32:11;;;;;;;;;;;;;;;8.64;100.00;98692.05;110946;1212;98025;-62
2023/10/27 01:34:36;;;;;;;;;;;;;;;8.64;100.00;98689.68;110889;1209;97696;-65
2023/10/27 01:37:01;;;;;;;;;;;;;;;8.65;100.00;98685.20;110876;1212;124719;-63
2023/10/27 01:39:26;;;;;;;;;;;;;;;8.62;100.00;98678.29;110885;1212;97642;-63
2023/10/27 01:41:51;;;;;;;;;;;;;;;8.59;100.00;98676.65;110795;1209;125359;-63
2023/10/27 01:44:16;;;;;;;;;;;;;;;8.60;100.00;98672.38;110853;1212;97688;-63
2023/10/27 01:46:42;;;;;;;;;;;;;;;8.58;100.00;98664.45;110905;1208;97666;-63
2023/10/27 01:49:07;;;;;;;;;;;;;;;8.60;100.00;98655.77;110835;1220;125140;-63
2023/10/27 01:51:32;;;;;;;;;;;;;;;8.60;100.00;98651.51;110834;1212;97664;-63
2023/10/27 01:53:57;;;;;;;;;;;;;;;8.56;100.00;98643.79;110846;1212;124674;-63
2023/10/27 01:56:22;;;;;;;;;;;;;;;8.56;100.00;98643.39;110877;1212;97687;-62
2023/10/27 01:58:47;;;;;;;;;;;;;;;8.56;100.00;98642.19;110959;1209;97669;-63
2023/10/27 02:01:14;;;;;;;;;;;;;;;8.57;100.00;98638.39;110749;1212;125314;-65
2023/10/27 02:03:40;;;;;;;;;;;;;;;8.55;100.00;98632.61;111143;1209;97770;-65
2023/10/27 02:06:05;;;;;;;;;;;;;;;8.55;100.00;98631.89;111440;1208;124964;-63
2023/10/27 02:08:30;;;;;;;;;;;;;;;8.53;100.00;98635.63;110814;1212;98714;-62
2023/10/27 02:10:55;;;;;;;;;;;;;;;8.52;100.00;98633.74;110909;1210;97696;-63
2023/10/27 02:13:21;;;;;;;;;;;;;;;8.51;100.00;98633.25;110769;1211;125107;-63
2023/10/27 02:15:46;;;;;;;;;;;;;;;8.47;100.00;98628.16;110934;1212;97676;-63
2023/10/27 02:18:11;;;;;;;;;;;;;;;8.49;100.00;98624.52;110931;1208;124732;-63
2023/10/27 02:20:36;;;;;;;;;;;;;;;8.51;100.00;98619.34;110947;1212;96995;-63
2023/10/27 02:23:01;;;;;;;;;;;;;;;8.54;100.00;98614.35;111019;1212;97710;-63
2023/10/27 02:25:26;;;;;;;;;;;;;;;8.56;100.00;98613.55;110820;1212;125716;-63
2023/10/27 02:27:52;;;;;;;;;;;;;;;8.56;100.00;98612.81;111031;1212;97827;-63
2023/10/27 02:30:17;;;;;;;;;;;;;;;8.56;100.00;98611.40;110794;1212;125765;-63
2023/10/27 02:32:42;;;;;;;;;;;;;;;8.58;100.00;98611.77;110967;1212;96523;-63
2023/10/27 02:35:07;;;;;;;;;;;;;;;8.60;100.00;98612.16;110903;1212;125227;-63
2023/10/27 02:37:32;;;;;;;;;;;;;;;8.62;100.00;98612.52;110898;1208;98832;-63
2023/10/27 02:39:58;;;;;;;;;;;;;;;8.65;100.00;98615.91;111036;1208;97671;-63
2023/10/27 02:42:23;;;;;;;;;;;;;;;8.65;100.00;98615.38;110795;1212;124821;-64
2023/10/27 02:44:48;;;;;;;;;;;;;;;8.66;100.00;98613.73;111023;1208;97632;-64
2023/10/27 02:47:13;;;;;;;;;;;;;;;8.65;100.00;98616.59;110742;1212;125630;-63
2023/10/27 02:49:38;;;;;;;;;;;;;;;8.67;100.00;98615.11;110956;1209;97732;-63
2023/10/27 02:52:04;;;;;;;;;;;;;;;8.68;100.00;98614.08;110918;1211;97684;-63
2023/10/27 02:54:29;;;;;;;;;;;;;;;8.70;100.00;98612.02;110832;1208;128207;-63
2023/10/27 02:56:54;;;;;;;;;;;;;;;8.71;100.00;98610.86;111007;1219;97637;-63
2023/10/27 02:59:20;;;;;;;;;;;;;;;8.70;100.00;98606.69;110864;1211;125384;-63
2023/10/27 03:01:45;;;;;;;;;;;;;;;8.71;100.00;98601.82;111036;1212;97711;-63
2023/10/27 03:04:10;;;;;;;;;;;;;;;8.74;100.00;98602.85;110964;1215;97602;-63
2023/10/27 03:06:36;;;;;;;;;;;;;;;8.76;100.00;98603.59;110967;1211;124547;-63
2023/10/27 03:09:02;;;;;;;;;;;;;;;8.75;100.00;98605.09;110992;1212;97584;-63
2023/10/27 03:11:27;;;;;;;;;;;;;;;8.74;100.00;98607.62;110833;1212;125602;-63
2023/10/27 03:13:52;;;;;;;;;;;;;;;8.75;100.00;98612.00;111028;1212;97775;-63
2023/10/27 03:16:17;;;;;;;;;;;;;;;8.73;100.00;98614.98;110948;1208;97729;-65
2023/10/27 03:18:43;;;;;;;;;;;;;;;8.71;100.00;98615.85;111341;1212;126613;-63
2023/10/27 03:21:08;;;;;;;;;;;;;;;8.71;100.00;98613.89;111370;1208;97627;-63
2023/10/27 03:23:33;;;;;;;;;;;;;;;8.74;100.00;98612.96;110810;1212;124900;-64
2023/10/27 03:25:59;;;;;;;;;;;;;;;8.75;100.00;98612.55;110980;1210;97742;-63
2023/10/27 03:28:24;;;;;;;;;;;;;;;8.74;100.00;98612.42;110957;1220;97625;-63
2023/10/27 03:30:53;;;;;;;;;;;;;;;8.73;100.00;98614.86;110936;1212;124976;-63
2023/10/27 03:33:18;;;;;;;;;;;;;;;8.73;100.00;98615.34;110935;1212;108583;-63
2023/10/27 03:35:44;;;;;;;;;;;;;;;8.73;100.00;98620.02;110839;1211;125653;-63
2023/10/27 03:38:10;;;;;;;;;;;;;;;8.73;100.00;98629.11;110977;1212;97684;-62
2023/10/27 03:40:39;;;;;;;;;;;;;;;8.75;100.00;98628.27;110946;1208;97635;-63
2023/10/27 03:43:04;;;;;;;;;;;;;;;8.74;100.00;98628.42;110858;1208;125284;-63
2023/10/27 03:45:29;;;;;;;;;;;;;;;8.76;100.00;98634.93;110907;1209;97711;-62
2023/10/27 03:47:55;;;;;;;;;;;;;;;8.76;100.00;98634.56;110854;1208;125430;-63
2023/10/27 03:50:20;;;;;;;;;;;;;;;8.73;100.00;98635.31;110966;1212;97694;-63
2023/10/27 03:52:45;;;;;;;;;;;;;;;8.75;100.00;98634.30;111000;1212;97600;-62
2023/10/27 03:55:11;;;;;;;;;;;;;;;8.73;100.00;98633.15;110843;1208;125075;-62
2023/10/27 03:57:39;;;;;;;;;;;;;;;8.71;100.00;98628.85;110927;1211;97735;-63
2023/10/27 04:00:04;;;;;;;;;;;;;;;8.70;100.00;98631.60;110851;1212;125246;-62
2023/10/27 04:02:30;;;;;;;;;;;;;;;8.70;100.00;98631.27;110977;1212;97626;-62
2023/10/27 04:04:55;;;;;;;;;;;;;;;8.70;100.00;98628.73;110958;1208;98451;-63
2023/10/27 04:07:20;;;;;;;;;;;;;;;8.69;100.00;98627.55;110921;1212;124533;-63
2023/10/27 04:09:45;;;;;;;;;;;;;;;8.72;100.00;98630.56;110961;1212;97739;-63
2023/10/27 04:12:10;;;;;;;;;;;;;;;8.75;100.00;98628.38;110824;1212;124921;-62
2023/10/27 04:14:35;;;;;;;;;;;;;;;8.78;100.00;98630.85;111024;1212;97588;-63
2023/10/27 04:17:01;;;;;;;;;;;;;;;8.79;100.00;98627.96;110977;1209;97610;-62
2023/10/27 04:19:26;;;;;;;;;;;;;;;8.76;100.00;98625.63;110895;1212;124396;-62
2023/10/27 04:21:51;;;;;;;;;;;;;;;8.74;100.00;98626.89;110909;1208;97575;-62
2023/10/27 04:24:17;;;;;;;;;;;;;;;8.73;100.00;98630.14;110919;1208;125479;-62
2023/10/27 04:26:42;;;;;;;;;;;;;;;8.72;100.00;98633.20;110975;1212;99204;-62
2023/10/27 04:29:07;;;;;;;;;;;;;;;8.73;100.00;98634.96;110834;1209;125949;-63
2023/10/27 04:31:32;;;;;;;;;;;;;;;8.74;100.00;98632.19;110934;1212;98018;-63
2023/10/27 04:33:58;;;;;;;;;;;;;;;8.74;100.00;98635.03;110982;1212;97801;-63
2023/10/27 04:36:23;;;;;;;;;;;;;;;8.71;100.00;98638.12;110811;1212;125329;-63
2023/10/27 04:38:48;;;;;;;;;;;;;;;8.69;100.00;98637.56;110971;1210;98278;-62
2023/10/27 04:41:14;;;;;;;;;;;;;;;8.72;100.00;98633.98;110902;1211;126030;-63
2023/10/27 04:43:39;;;;;;;;;;;;;;;8.73;100.00;98635.27;110915;1225;106990;-62
2023/10/27 04:46:04;;;;;;;;;;;;;;;8.75;100.00;98636.06;110986;1212;97724;-63
2023/10/27 04:48:29;;;;;;;;;;;;;;;8.77;100.00;98632.35;110921;1212;124697;-62
2023/10/27 04:51:03;;;;;;;;;;;;;;;8.77;100.00;98632.02;110923;1212;97669;-63
2023/10/27 04:53:29;;;;;;;;;;;;;;;8.73;100.00;98633.34;110757;1214;126378;-62
2023/10/27 04:55:55;;;;;;;;;;;;;;;8.73;100.00;98635.27;111029;1212;97576;-62
2023/10/27 04:58:21;;;;;;;;;;;;;;;8.76;100.00;98637.26;110954;1211;97759;-62
2023/10/27 05:00:46;;;;;;;;;;;;;;;8.77;100.00;98642.30;110755;1208;126177;-62
2023/10/27 05:03:12;;;;;;;;;;;;;;;8.79;100.00;98640.77;110816;1212;98993;-62
2023/10/27 05:05:37;;;;;;;;;;;;;;;8.82;100.00;98642.54;110803;1212;124861;-62
2023/10/27 05:08:03;;;;;;;;;;;;;;;8.83;100.00;98644.45;110966;1230;97625;-62
2023/10/27 05:10:28;;;;;;;;;;;;;;;8.83;100.00;98645.33;110898;1212;97671;-62
2023/10/27 05:12:55;;;;;;;;;;;;;;;8.85;100.00;98651.59;110848;1210;124823;-65
2023/10/27 05:15:20;;;;;;;;;;;;;;;8.84;100.00;98648.81;110945;1208;97597;-62
2023/10/27 05:17:46;;;;;;;;;;;;;;;8.82;100.00;98645.05;110868;1212;125398;-63
2023/10/27 05:20:11;;;;;;;;;;;;;;;8.76;100.00;98642.39;110887;1212;107931;-62
2023/10/27 05:22:36;;;;;;;;;;;;;;;8.77;100.00;98641.45;110831;1220;99079;-63
2023/10/27 05:25:03;;;;;;;;;;;;;;;8.82;100.00;98641.15;110875;1212;124700;-62
2023/10/27 05:27:29;;;;;;;;;;;;;;;8.83;100.00;98644.42;110864;1212;99882;-62
2023/10/27 05:29:54;;;;;;;;;;;;;;;8.84;100.00;98647.57;110832;1208;125346;-63
2023/10/27 05:32:19;;;;;;;;;;;;;;;8.87;100.00;98645.61;110926;1213;97598;-62
2023/10/27 05:34:45;;;;;;;;;;;;;;;8.88;100.00;98647.30;110938;1208;97672;-63
2023/10/27 05:37:10;;;;;;;;;;;;;;;8.87;100.00;98643.81;110883;1212;125202;-62
2023/10/27 05:39:35;;;;;;;;;;;;;;;8.88;100.00;98638.73;110896;1212;97740;-62
2023/10/27 05:42:00;;;;;;;;;;;;;;;8.88;100.00;98634.68;110849;1208;124852;-62
2023/10/27 05:44:25;;;;;;;;;;;;;;;8.83;100.00;98638.91;110935;1212;97674;-62
2023/10/27 05:46:51;;;;;;;;;;;;;;;8.85;100.00;98637.89;110901;1208;97589;-62
2023/10/27 05:49:16;;;;;;;;;;;;;;;8.86;100.00;98638.19;110834;1212;124655;-63
2023/10/27 05:51:41;;;;;;;;;;;;;;;8.85;100.00;98640.05;110936;1212;99071;-62
2023/10/27 05:54:06;;;;;;;;;;;;;;;8.82;100.00;98640.21;110829;1208;125383;-62
2023/10/27 05:56:32;;;;;;;;;;;;;;;8.81;100.00;98643.33;110877;1212;97678;-63
2023/10/27 05:58:57;;;;;;;;;;;;;;;8.83;100.00;98645.90;111415;1208;97707;-62
2023/10/27 06:01:23;;;;;;;;;;;;;;;8.86;100.00;98647.08;110732;1224;125442;-62
2023/10/27 06:03:48;;;;;;;;;;;;;;;8.89;100.00;98644.60;110928;1212;97600;-66
2023/10/27 06:06:14;;;;;;;;;;;;;;;8.89;100.00;98645.77;110843;1212;125585;-67
2023/10/27 06:08:42;;;;;;;;;;;;;;;8.88;100.00;98642.52;110902;1212;97668;-66
2023/10/27 06:11:08;;;;;;;;;;;;;;;8.87;100.00;98642.91;110804;1212;124815;-66
2023/10/27 06:13:33;;;;;;;;;;;;;;;8.87;100.00;98639.36;110808;1208;98033;-67
2023/10/27 06:15:58;;;;;;;;;;;;;;;8.86;100.00;98639.64;110960;1212;97608;-67
2023/10/27 06:18:23;;;;;;;;;;;;;;;8.84;100.00;98640.28;110715;1208;125819;-67
2023/10/27 06:20:48;;;;;;;;;;;;;;;8.83;100.00;98647.14;110974;1210;99131;-67
2023/10/27 06:23:14;;;;;;;;;;;;;;;8.86;100.00;98648.36;110829;1208;125427;-67
2023/10/27 06:25:39;;;;;;;;;;;;;;;8.88;100.00;98651.91;110989;1212;97291;-67
2023/10/27 06:28:04;;;;;;;;;;;;;;;8.91;100.00;98648.38;110950;1212;97607;-67
2023/10/27 06:30:29;;;;;;;;;;;;;;;8.92;100.00;98646.00;110720;1212;124689;-67
2023/10/27 06:32:54;;;;;;;;;;;;;;;8.91;100.00;98645.33;110866;1212;99080;-67
2023/10/27 06:35:19;;;;;;;;;;;;;;;8.91;100.00;98646.02;110779;1208;125493;-66
2023/10/27 06:37:45;;;;;;;;;;;;;;;8.93;100.00;98645.88;111042;1212;97415;-67
2023/10/27 06:40:10;;;;;;;;;;;;;;;8.95;100.00;98646.09;110781;1212;98777;-67
2023/10/27 06:42:36;;;;;;;;;;;;;;;8.95;100.00;98646.81;110855;1211;124655;-67
2023/10/27 06:45:03;;;;;;;;;;;;;;;8.91;100.00;98644.95;110955;1208;99013;-67
2023/10/27 06:47:29;;;;;;;;;;;;;;;8.92;100.00;98644.04;110708;1208;124744;-67
2023/10/27 06:49:54;;;;;;;;;;;;;;;8.97;100.00;98638.83;110770;1212;97690;-67
2023/10/27 06:52:19;;;;;;;;;;;;;;;9.00;100.00;98640.94;110949;1210;97668;-68
2023/10/27 06:54:46;;;;;;;;;;;;;;;9.06;100.00;98639.98;110727;1212;125848;-67
2023/10/27 06:57:11;;;;;;;;;;;;;;;9.09;100.00;98641.77;110860;1211;97659;-67
2023/10/27 06:59:36;;;;;;;;;;;;;;;9.12;100.00;98640.51;110805;1208;126109;-68
2023/10/27 07:02:03;;;;;;;;;;;;;;;9.14;100.00;98647.08;110792;1212;98356;-69
2023/10/27 07:04:28;;;;;;;;;;;;;;;9.16;100.00;98646.62;110760;1211;97723;-67
2023/10/27 07:06:54;;;;;;;;;;;;;;;9.17;100.00;98643.52;110823;1212;125406;-68
2023/10/27 07:09:19;;;;;;;;;;;;;;;9.19;100.00;98639.83;110888;1212;97644;-68
2023/10/27 07:11:44;;;;;;;;;;;;;;;9.20;100.00;98634.07;110867;1211;125411;-68
2023/10/27 07:14:10;;;;;;;;;;;;;;;9.18;100.00;98634.01;110870;1212;97602;-68
2023/10/27 07:16:35;;;;;;;;;;;;;;;9.18;100.00;98634.37;110870;1212;97665;-68
2023/10/27 07:19:01;;;;;;;;;;;;;;;9.21;100.00;98630.04;110901;1209;126084;-68
2023/10/27 07:21:26;;;;;;;;;;;;;;;9.24;100.00;98632.90;110887;1212;97598;-68
2023/10/27 07:23:51;;;;;;;;;;;;;;;9.30;100.00;98637.27;110932;1216;124891;-68
2023/10/27 07:26:17;;;;;;;;;;;;;;;9.36;100.00;98640.40;110960;1209;97629;-69
2023/10/27 07:28:42;;;;;;;;;;;;;;;9.37;100.00;98638.84;111008;1211;97861;-68
2023/10/27 07:31:08;;;;;;;;;;;;;;;9.44;100.00;98644.06;110917;1208;125870;-68
2023/10/27 07:33:33;;;;;;;;;;;;;;;9.53;100.00;98645.09;111060;1212;97607;-68
2023/10/27 07:36:02;;;;;;;;;;;;;;;9.54;100.00;98646.95;110883;1212;125349;-68
2023/10/27 07:38:27;;;;;;;;;;;;;;;9.59;100.00;98643.54;110929;1209;98040;-68
2023/10/27 07:40:58;;;;;;;;;;;;;;;9.64;100.00;98642.47;111046;1211;97570;-69
2023/10/27 07:43:24;;;;;;;;;;;;;;;9.68;100.00;98643.42;110803;1212;124717;-69
2023/10/27 07:45:49;;;;;;;;;;;;;;;9.72;100.00;98649.75;110748;1212;98953;-68
2023/10/27 07:48:14;;;;;;;;;;;;;;;9.76;100.00;98650.36;110542;1213;124705;-69
2023/10/27 07:50:40;;;;;;;;;;;;;;;9.81;100.00;98652.69;110643;1208;97620;-69
2023/10/27 07:53:05;;;;;;;;;;;;;;;9.86;100.00;98653.02;110750;1213;124912;-67
2023/10/27 07:55:31;;;;;;;;;;;;;;;9.86;100.00;98655.89;110582;1212;110716;-69
2023/10/27 07:57:56;;;;;;;;;;;;;;;9.84;100.00;98657.50;110709;1212;97656;-69
2023/10/27 08:00:21;;;;;;;;;;;;;;;9.81;100.00;98658.79;110465;1208;124703;-69
2023/10/27 08:02:47;;;;;;;;;;;;;;;9.81;100.00;98661.42;110740;1212;97714;-69
2023/10/27 08:05:12;;;;;;;;;;;;;;;9.78;100.00;98660.05;110812;1220;124808;-68
2023/10/27 08:07:37;;;;;;;;;;;;;;;9.72;100.00;98659.77;110722;1208;98659;-69
2023/10/27 08:10:07;;;;;;;;;;;;;;;9.67;100.00;98654.63;110743;1209;99592;-70
2023/10/27 08:12:32;;;;;;;;;;;;;;;9.62;100.00;98656.91;110678;1211;125049;-69
2023/10/27 08:14:57;;;;;;;;;;;;;;;9.57;100.00;98651.38;110817;1209;98357;-69
2023/10/27 08:17:23;;;;;;;;;;;;;;;9.59;100.00;98652.48;110581;1213;125021;-70
2023/10/27 08:19:48;;;;;;;;;;;;;;;9.63;100.00;98650.63;110798;1211;98796;-70
2023/10/27 08:22:13;;;;;;;;;;;;;;;9.62;100.00;98646.77;110790;1212;96591;-69
2023/10/27 08:24:38;;;;;;;;;;;;;;;9.56;100.00;98646.98;110581;1216;124777;-70
2023/10/27 08:27:04;;;;;;;;;;;;;;;9.54;100.00;98647.90;110738;1209;97562;-68
2023/10/27 08:29:29;;;;;;;;;;;;;;;9.60;100.00;98650.26;110562;1211;126231;-68
2023/10/27 08:31:54;;;;;;;;;;;;;;;9.67;100.00;98647.61;110883;1209;97752;-68
2023/10/27 08:34:21;;;;;;;;;;;;;;;9.74;100.00;98646.23;110805;1208;97723;-69
2023/10/27 08:36:47;;;;;;;;;;;;;;;9.80;100.00;98646.38;110786;1212;125794;-68
2023/10/27 08:39:12;;;;;;;;;;;;;;;9.84;100.00;98646.91;110799;1211;96791;-69
2023/10/27 08:41:38;;;;;;;;;;;;;;;9.86;100.00;98648.59;110792;1212;124941;-69
2023/10/27 08:44:03;;;;;;;;;;;;;;;9.91;100.00;98648.05;110907;1212;97769;-69
2023/10/27 08:46:29;;;;;;;;;;;;;;;9.94;100.00;98652.66;110913;1208;97575;-69
2023/10/27 08:48:55;;;;;;;;;;;;;;;9.97;100.00;98651.73;110862;1211;124693;-70
2023/10/27 08:51:20;;;;;;;;;;;;;;;9.97;100.00;98647.09;110756;1208;97675;-69
2023/10/27 08:53:46;;;;;;;;;;;;;;;9.95;100.00;98647.19;110823;1220;125475;-69
2023/10/27 08:56:12;;;;;;;;;;;;;;;9.89;100.00;98649.59;110891;1213;96459;-69
2023/10/27 08:58:39;;;;;;;;;;;;;;;9.83;100.00;98647.35;110848;1211;97674;-69
2023/10/27 09:01:04;;;;;;;;;;;;;;;9.82;100.00;98651.58;110884;1208;124659;-70
2023/10/27 09:03:29;;;;;;;;;;;;;;;9.86;100.00;98649.31;110866;1211;98897;-67
2023/10/27 09:05:54;;;;;;;;;;;;;;;9.87;100.00;98651.56;110644;1211;125193;-68
2023/10/27 09:08:20;;;;;;;;;;;;;;;9.86;100.00;98650.73;110911;1209;97590;-67
2023/10/27 09:10:46;;;;;;;;;;;;;;;9.87;100.00;98650.27;110777;1212;97728;-68
2023/10/27 09:13:11;;;;;;;;;;;;;;;9.89;100.00;98653.35;110625;1208;125411;-68
2023/10/27 09:15:41;;;;;;;;;;;;;;;9.91;100.00;98656.10;110872;1212;99304;-68
2023/10/27 09:18:06;;;;;;;;;;;;;;;9.90;100.00;98659.88;110737;1212;124888;-68
2023/10/27 09:20:31;;;;;;;;;;;;;;;9.93;100.00;98663.62;110673;1212;97581;-70
2023/10/27 09:22:58;;;;;;;;;;;;;;;9.86;100.00;98664.26;110808;1212;97601;-69
2023/10/27 09:25:28;;;;;;;;;;;;;;;9.83;100.00;98661.66;110612;1212;124675;-69
2023/10/27 09:27:54;;;;;;;;;;;;;;;9.88;100.00;98663.77;110761;1211;100028;-68
2023/10/27 09:30:26;;;;;;;;;;;;;;;9.90;100.00;98661.47;110850;1212;124840;-69
2023/10/27 09:32:51;;;;;;;;;;;;;;;9.88;100.00;98663.44;110613;1208;97801;-69
2023/10/27 09:35:18;;;;;;;;;;;;;;;9.85;100.00;98663.25;110413;1220;124962;-69
2023/10/27 09:37:46;;;;;;;;;;;;;;;9.87;100.00;98660.80;110729;1214;99055;-69
2023/10/27 09:40:13;;;;;;;;;;;;;;;9.88;100.00;98656.08;110481;1212;97655;-68
2023/10/27 09:42:38;;;;;;;;;;;;;;;9.88;100.00;98650.38;110682;1207;125201;-69
2023/10/27 09:45:07;;;;;;;;;;;;;;;9.87;100.00;98645.26;110716;1224;97796;-69
2023/10/27 09:47:34;;;;;;;;;;;;;;;9.90;100.00;98643.84;110641;1208;125048;-69
2023/10/27 09:50:06;;;;;;;;;;;;;;;9.87;100.00;98646.16;110669;1208;99127;-68
2023/10/27 09:52:31;;;;;;;;;;;;;;;9.84;100.00;98642.81;110687;1208;107993;-69
2023/10/27 09:54:57;;;;;;;;;;;;;;;9.88;100.00;98636.14;110656;1214;125395;-69
2023/10/27 09:57:23;;;;;;;;;;;;;;;9.92;100.00;98632.09;110892;1208;97578;-69
2023/10/27 09:59:49;;;;;;;;;;;;;;;9.98;100.00;98628.80;110728;1211;124702;-69
2023/10/27 10:02:15;;;;;;;;;;;;;;;9.97;100.00;98623.29;110823;1208;98302;-69
2023/10/27 10:04:50;;;;;;;;;;;;;;;9.97;100.00;98626.71;110862;1211;97945;-69
2023/10/27 10:07:27;;;;;;;;;;;;;;;9.99;100.00;98631.73;110680;1209;125399;-69
2023/10/27 10:09:52;;;;;;;;;;;;;;;9.99;100.00;98626.57;110839;1212;111530;-69
2023/10/27 10:12:17;;;;;;;;;;;;;;;10.00;100.00;98634.51;110621;1211;125075;-69
2023/10/27 10:14:48;;;;;;;;;;;;;;;9.97;100.00;98633.85;110913;1208;97597;-68
2023/10/27 10:17:33;;;;;;;;;;;;;;;9.93;100.00;98638.39;110780;1208;124963;-67
2023/10/27 10:19:58;;;;;;;;;;;;;;;9.92;100.00;98636.14;110905;1209;111648;-67
2023/10/27 10:22:39;;;;;;;;;;;;;;;9.93;100.00;98636.11;110857;1212;97731;-68
2023/10/27 10:25:23;;;;;;;;;;;;;;;9.91;100.00;98631.94;110728;1214;125218;-68
2023/10/27 10:28:06;;;;;;;;;;;;;;;9.85;100.00;98629.36;110815;1208;99342;-67
2023/10/27 10:30:31;;;;;;;;;;;;;;;9.89;100.00;98627.68;110701;1209;124779;-68
2023/10/27 10:33:15;;;;;;;;;;;;;;;9.92;100.00;98621.34;110758;1208;97716;-68
2023/10/27 10:35:45;;;;;;;;;;;;;;;9.96;100.00;98611.77;110800;1212;124807;-67
2023/10/27 10:38:20;;;;;;;;;;;;;;;10.03;100.00;98614.33;111050;1208;107313;-67
2023/10/27 10:40:52;;;;;;;;;;;;;;;10.07;100.00;98618.52;110969;1224;97646;-67
2023/10/27 10:43:34;;;;;;;;;;;;;;;10.07;100.00;98615.79;110705;1211;127615;-69
2023/10/27 10:46:00;;;;;;;;;;;;;;;10.06;100.00;98610.30;110809;1212;111569;-68
2023/10/27 10:48:27;;;;;;;;;;;;;;;10.06;100.00;98610.51;110753;1220;127067;-68
2023/10/27 10:50:55;;;;;;;;;;;;;;;10.02;100.00;98608.86;110804;1213;97697;-68
2023/10/27 10:53:22;;;;;;;;;;;;;;;10.00;100.00;98607.02;110636;1212;125596;-68
2023/10/27 10:55:48;;;;;;;;;;;;;;;10.05;100.00;98602.95;110678;1209;98525;-68
2023/10/27 10:58:21;;;;;;;;;;;;;;;10.13;100.00;98600.05;111052;1214;97677;-68
2023/10/27 11:00:48;;;;;;;;;;;;;;;10.17;100.00;98592.63;110800;1208;126145;-69
2023/10/27 11:03:13;;;;;;;;;;;;;;;10.11;100.00;98591.79;110855;1211;97888;-68
2023/10/27 11:05:39;;;;;;;;;;;;;;;10.11;100.00;98591.81;110788;1208;124920;-68
2023/10/27 11:08:04;;;;;;;;;;;;;;;10.13;100.00;98592.92;110920;1212;97721;-68
2023/10/27 11:10:32;;;;;;;;;;;;;;;10.18;100.00;98584.33;110995;1208;97655;-69
2023/10/27 11:13:00;;;;;;;;;;;;;;;10.20;100.00;98576.19;110773;1211;126108;-68
2023/10/27 11:15:43;;;;;;;;;;;;;;;10.22;100.00;98569.58;110853;1212;97802;-68
2023/10/27 11:18:10;;;;;;;;;;;;;;;10.25;100.00;98562.56;110864;1212;125726;-68
2023/10/27 11:20:37;;;;;;;;;;;;;;;10.28;100.00;98559.31;110763;1212;100025;-68
2023/10/27 11:23:07;;;;;;;;;;;;;;;10.27;100.00;98562.79;110688;1209;125730;-65
2023/10/27 11:25:33;;;;;;;;;;;;;;;10.26;100.00;98558.05;110656;1208;97703;-68
2023/10/27 11:28:16;;;;;;;;;;;;;;;10.25;100.00;98554.32;110851;1214;97711;-67
2023/10/27 11:30:41;;;;;;;;;;;;;;;10.24;100.00;98553.88;110849;1212;125443;-69
2023/10/27 11:33:08;;;;;;;;;;;;;;;10.25;100.00;98555.83;110776;1214;97722;-68
2023/10/27 11:35:34;;;;;;;;;;;;;;;10.26;100.00;98556.05;110737;1211;125125;-68
2023/10/27 11:38:02;;;;;;;;;;;;;;;10.26;100.00;98552.83;110819;1208;97619;-68
2023/10/27 11:40:27;;;;;;;;;;;;;;;10.25;100.00;98555.27;110687;1211;110805;-69
2023/10/27 11:42:52;;;;;;;;;;;;;;;10.23;100.00;98552.05;110677;1212;125898;-69
2023/10/27 11:45:17;;;;;;;;;;;;;;;10.18;100.00;98551.09;110744;1212;97623;-69
2023/10/27 11:47:43;;;;;;;;;;;;;;;10.10;100.00;98554.38;110534;1212;125527;-69
2023/10/27 11:50:09;;;;;;;;;;;;;;;10.00;100.00;98557.08;110909;1224;97653;-70
2023/10/27 11:52:34;;;;;;;;;;;;;;;9.97;100.00;98554.46;110715;1212;107951;-68
2023/10/27 11:55:00;;;;;;;;;;;;;;;9.95;100.00;98559.07;110567;1208;124910;-68
2023/10/27 11:57:25;;;;;;;;;;;;;;;9.96;100.00;98556.16;110551;1208;99386;-69
2023/10/27 11:59:50;;;;;;;;;;;;;;;9.97;100.00;98554.14;110493;1212;125132;-68
2023/10/27 12:02:15;;;;;;;;;;;;;;;9.99;100.00;98549.09;110765;1213;97616;-69
2023/10/27 12:04:40;;;;;;;;;;;;;;;10.02;100.00;98548.70;110756;1212;97794;-69
2023/10/27 12:07:06;;;;;;;;;;;;;;;10.06;100.00;98552.35;110696;1215;125442;-69
2023/10/27 12:09:31;;;;;;;;;;;;;;;10.05;100.00;98553.48;110640;1214;108916;-69
2023/10/27 12:11:56;;;;;;;;;;;;;;;10.01;100.00;98557.58;110560;1208;125668;-69
2023/10/27 12:14:23;;;;;;;;;;;;;;;10.01;100.00;98553.98;110845;1220;97675;-68
2023/10/27 12:16:48;;;;;;;;;;;;;;;10.03;100.00;98557.36;110796;1208;97684;-70
2023/10/27 12:19:13;;;;;;;;;;;;;;;10.01;100.00;98558.98;110762;1212;124713;-70
2023/10/27 12:21:39;;;;;;;;;;;;;;;9.97;100.00;98558.91;110858;1214;98757;-71
2023/10/27 12:24:04;;;;;;;;;;;;;;;9.97;100.00;98559.45;110768;1214;125782;-70
2023/10/27 12:26:29;;;;;;;;;;;;;;;10.02;100.00;98560.65;110947;1208;96785;-70